Terminal Aerodrome Forecast
Issued by NWS

Home | Current Version | Previous Version | Graphics & Text | Print | Product List | Glossary On
Versions: 1 2 3 4 5 6 7 8 9 10 11 12 13 14 15 16
000
FTUS43 KABR 291123
TAFATY
TAF
KATY 291123Z 2912/3012 VRB06KT 6SM BR SKC
     FM291300 13004KT P6SM FEW080
     FM291900 12008KT P6SM FEW250=

USA.gov is the U.S. government's official web portal to all federal, state and local government web resources and services.